sensor_id;sensor_type;location;lat;lon;timestamp;P1;durP1;ratioP1;P2;durP2;ratioP2
9080;SDS011;13509;50.760;6.080;2023-01-31T00:01:11;25.83;;;4.70;;
9080;SDS011;13509;50.760;6.080;2023-01-31T00:03:41;14.63;;;3.67;;
9080;SDS011;13509;50.760;6.080;2023-01-31T00:06:14;18.43;;;3.63;;
9080;SDS011;13509;50.760;6.080;2023-01-31T00:08:43;14.13;;;3.27;;
9080;SDS011;13509;50.760;6.080;2023-01-31T00:11:12;12.90;;;3.20;;
9080;SDS011;13509;50.760;6.080;2023-01-31T00:13:41;23.57;;;4.30;;
9080;SDS011;13509;50.760;6.080;2023-01-31T00:16:10;24.70;;;4.03;;
9080;SDS011;13509;50.760;6.080;2023-01-31T00:18:38;18.10;;;3.57;;
9080;SDS011;13509;50.760;6.080;2023-01-31T00:21:09;18.47;;;3.50;;
9080;SDS011;13509;50.760;6.080;2023-01-31T00:23:38;17.50;;;3.50;;
9080;SDS011;13509;50.760;6.080;2023-01-31T00:26:07;15.53;;;3.23;;
9080;SDS011;13509;50.760;6.080;2023-01-31T00:28:35;16.07;;;3.30;;
9080;SDS011;13509;50.760;6.080;2023-01-31T00:31:04;13.53;;;3.37;;
9080;SDS011;13509;50.760;6.080;2023-01-31T00:33:32;13.93;;;3.23;;
9080;SDS011;13509;50.760;6.080;2023-01-31T00:36:02;20.40;;;3.70;;
9080;SDS011;13509;50.760;6.080;2023-01-31T00:38:32;15.57;;;3.67;;
9080;SDS011;13509;50.760;6.080;2023-01-31T00:41:00;18.57;;;4.43;;
9080;SDS011;13509;50.760;6.080;2023-01-31T00:43:29;8.67;;;3.50;;
9080;SDS011;13509;50.760;6.080;2023-01-31T00:45:57;16.07;;;3.70;;
9080;SDS011;13509;50.760;6.080;2023-01-31T00:48:26;17.47;;;3.60;;
9080;SDS011;13509;50.760;6.080;2023-01-31T00:50:54;10.90;;;3.27;;
9080;SDS011;13509;50.760;6.080;2023-01-31T00:53:22;14.17;;;4.10;;
9080;SDS011;13509;50.760;6.080;2023-01-31T00:55:53;17.87;;;3.27;;
9080;SDS011;13509;50.760;6.080;2023-01-31T00:58:21;20.47;;;4.53;;
9080;SDS011;13509;50.760;6.080;2023-01-31T01:00:50;17.67;;;3.77;;
9080;SDS011;13509;50.760;6.080;2023-01-31T01:03:18;13.57;;;3.70;;
9080;SDS011;13509;50.760;6.080;2023-01-31T01:05:46;16.53;;;3.90;;
9080;SDS011;13509;50.760;6.080;2023-01-31T01:08:14;17.40;;;4.00;;
9080;SDS011;13509;50.760;6.080;2023-01-31T01:10:42;17.50;;;3.73;;
9080;SDS011;13509;50.760;6.080;2023-01-31T01:13:12;19.37;;;3.70;;
9080;SDS011;13509;50.760;6.080;2023-01-31T01:15:40;14.17;;;3.80;;
9080;SDS011;13509;50.760;6.080;2023-01-31T01:18:08;15.20;;;3.53;;
9080;SDS011;13509;50.760;6.080;2023-01-31T01:20:36;19.00;;;3.90;;
9080;SDS011;13509;50.760;6.080;2023-01-31T01:23:05;20.00;;;4.57;;
9080;SDS011;13509;50.760;6.080;2023-01-31T01:25:40;18.07;;;4.10;;
9080;SDS011;13509;50.760;6.080;2023-01-31T01:28:08;16.00;;;4.13;;
9080;SDS011;13509;50.760;6.080;2023-01-31T01:30:38;16.23;;;4.23;;
9080;SDS011;13509;50.760;6.080;2023-01-31T01:33:06;15.63;;;4.17;;
9080;SDS011;13509;50.760;6.080;2023-01-31T01:35:34;16.63;;;4.73;;
9080;SDS011;13509;50.760;6.080;2023-01-31T01:38:02;21.30;;;4.50;;
9080;SDS011;13509;50.760;6.080;2023-01-31T01:40:33;23.17;;;5.03;;
9080;SDS011;13509;50.760;6.080;2023-01-31T01:43:02;13.37;;;4.57;;
9080;SDS011;13509;50.760;6.080;2023-01-31T01:45:30;22.83;;;6.73;;
9080;SDS011;13509;50.760;6.080;2023-01-31T01:48:01;21.30;;;5.60;;
9080;SDS011;13509;50.760;6.080;2023-01-31T01:50:31;20.53;;;5.63;;
9080;SDS011;13509;50.760;6.080;2023-01-31T01:53:02;13.87;;;5.17;;
9080;SDS011;13509;50.760;6.080;2023-01-31T01:55:31;20.57;;;4.97;;
9080;SDS011;13509;50.760;6.080;2023-01-31T01:58:02;21.90;;;5.43;;
9080;SDS011;13509;50.760;6.080;2023-01-31T02:00:31;22.23;;;5.87;;
9080;SDS011;13509;50.760;6.080;2023-01-31T02:03:03;22.00;;;5.73;;
9080;SDS011;13509;50.760;6.080;2023-01-31T02:05:32;19.80;;;5.67;;
9080;SDS011;13509;50.760;6.080;2023-01-31T02:08:01;17.83;;;4.63;;
9080;SDS011;13509;50.760;6.080;2023-01-31T02:10:30;23.87;;;5.60;;
9080;SDS011;13509;50.760;6.080;2023-01-31T02:12:59;19.00;;;5.27;;
9080;SDS011;13509;50.760;6.080;2023-01-31T02:15:28;22.23;;;5.53;;
9080;SDS011;13509;50.760;6.080;2023-01-31T02:17:56;18.47;;;5.43;;
9080;SDS011;13509;50.760;6.080;2023-01-31T02:23:18;18.53;;;5.87;;
9080;SDS011;13509;50.760;6.080;2023-01-31T02:28:40;19.03;;;6.73;;
9080;SDS011;13509;50.760;6.080;2023-01-31T02:34:01;22.03;;;5.93;;
9080;SDS011;13509;50.760;6.080;2023-01-31T02:36:33;24.90;;;7.67;;
9080;SDS011;13509;50.760;6.080;2023-01-31T02:39:06;19.97;;;6.73;;
9080;SDS011;13509;50.760;6.080;2023-01-31T02:41:40;23.13;;;7.87;;
9080;SDS011;13509;50.760;6.080;2023-01-31T02:44:12;20.10;;;7.30;;
9080;SDS011;13509;50.760;6.080;2023-01-31T02:46:59;23.87;;;7.67;;
9080;SDS011;13509;50.760;6.080;2023-01-31T02:49:33;25.13;;;7.03;;
9080;SDS011;13509;50.760;6.080;2023-01-31T02:52:05;27.20;;;8.73;;
9080;SDS011;13509;50.760;6.080;2023-01-31T02:54:50;22.97;;;8.53;;
9080;SDS011;13509;50.760;6.080;2023-01-31T02:57:37;24.97;;;8.27;;
9080;SDS011;13509;50.760;6.080;2023-01-31T03:00:06;24.73;;;8.50;;
9080;SDS011;13509;50.760;6.080;2023-01-31T03:02:35;20.90;;;9.17;;
9080;SDS011;13509;50.760;6.080;2023-01-31T03:05:05;22.07;;;7.83;;
9080;SDS011;13509;50.760;6.080;2023-01-31T03:07:33;32.50;;;10.00;;
9080;SDS011;13509;50.760;6.080;2023-01-31T03:10:08;32.47;;;8.63;;
9080;SDS011;13509;50.760;6.080;2023-01-31T03:12:42;21.53;;;8.47;;
9080;SDS011;13509;50.760;6.080;2023-01-31T03:15:26;33.90;;;9.63;;
9080;SDS011;13509;50.760;6.080;2023-01-31T03:18:15;26.60;;;8.77;;
9080;SDS011;13509;50.760;6.080;2023-01-31T03:20:46;33.83;;;9.93;;
9080;SDS011;13509;50.760;6.080;2023-01-31T03:23:17;29.83;;;9.63;;
9080;SDS011;13509;50.760;6.080;2023-01-31T03:25:46;28.20;;;8.93;;
9080;SDS011;13509;50.760;6.080;2023-01-31T03:28:16;30.80;;;9.83;;
9080;SDS011;13509;50.760;6.080;2023-01-31T03:30:45;31.47;;;10.03;;
9080;SDS011;13509;50.760;6.080;2023-01-31T03:33:16;31.80;;;10.10;;
9080;SDS011;13509;50.760;6.080;2023-01-31T03:35:48;31.77;;;10.37;;
9080;SDS011;13509;50.760;6.080;2023-01-31T03:38:19;32.47;;;9.63;;
9080;SDS011;13509;50.760;6.080;2023-01-31T03:40:50;28.00;;;10.43;;
9080;SDS011;13509;50.760;6.080;2023-01-31T03:43:24;30.40;;;10.43;;
9080;SDS011;13509;50.760;6.080;2023-01-31T03:45:54;34.17;;;9.70;;
9080;SDS011;13509;50.760;6.080;2023-01-31T03:48:25;23.00;;;8.27;;
9080;SDS011;13509;50.760;6.080;2023-01-31T03:50:57;27.70;;;8.83;;
9080;SDS011;13509;50.760;6.080;2023-01-31T03:53:28;24.60;;;8.77;;
9080;SDS011;13509;50.760;6.080;2023-01-31T03:55:58;23.43;;;8.63;;
9080;SDS011;13509;50.760;6.080;2023-01-31T03:58:28;25.77;;;10.03;;
9080;SDS011;13509;50.760;6.080;2023-01-31T04:00:58;33.27;;;10.00;;
9080;SDS011;13509;50.760;6.080;2023-01-31T04:03:29;29.57;;;9.67;;
9080;SDS011;13509;50.760;6.080;2023-01-31T04:06:00;22.50;;;8.20;;
9080;SDS011;13509;50.760;6.080;2023-01-31T04:08:28;26.97;;;8.67;;
9080;SDS011;13509;50.760;6.080;2023-01-31T04:10:57;26.07;;;8.57;;
9080;SDS011;13509;50.760;6.080;2023-01-31T04:13:26;26.73;;;8.30;;
9080;SDS011;13509;50.760;6.080;2023-01-31T04:15:54;25.20;;;8.03;;
9080;SDS011;13509;50.760;6.080;2023-01-31T04:18:22;30.07;;;8.73;;
9080;SDS011;13509;50.760;6.080;2023-01-31T04:20:50;27.87;;;9.17;;
9080;SDS011;13509;50.760;6.080;2023-01-31T04:23:20;31.40;;;9.30;;
9080;SDS011;13509;50.760;6.080;2023-01-31T04:25:51;21.90;;;8.63;;
9080;SDS011;13509;50.760;6.080;2023-01-31T04:28:19;22.87;;;9.20;;
9080;SDS011;13509;50.760;6.080;2023-01-31T04:30:50;30.50;;;8.30;;
9080;SDS011;13509;50.760;6.080;2023-01-31T04:33:19;28.80;;;9.63;;
9080;SDS011;13509;50.760;6.080;2023-01-31T04:35:47;23.07;;;8.13;;
9080;SDS011;13509;50.760;6.080;2023-01-31T04:38:17;25.53;;;8.30;;
9080;SDS011;13509;50.760;6.080;2023-01-31T04:40:46;19.90;;;7.63;;
9080;SDS011;13509;50.760;6.080;2023-01-31T04:43:14;22.93;;;7.17;;
9080;SDS011;13509;50.760;6.080;2023-01-31T04:45:43;19.80;;;6.53;;
9080;SDS011;13509;50.760;6.080;2023-01-31T04:48:11;18.40;;;7.00;;
9080;SDS011;13509;50.760;6.080;2023-01-31T04:50:39;26.43;;;7.40;;
9080;SDS011;13509;50.760;6.080;2023-01-31T04:53:07;22.73;;;7.00;;
9080;SDS011;13509;50.760;6.080;2023-01-31T04:55:35;20.50;;;6.57;;
9080;SDS011;13509;50.760;6.080;2023-01-31T04:58:05;27.53;;;6.07;;
9080;SDS011;13509;50.760;6.080;2023-01-31T05:00:34;24.10;;;5.97;;
9080;SDS011;13509;50.760;6.080;2023-01-31T05:03:02;23.53;;;6.70;;
9080;SDS011;13509;50.760;6.080;2023-01-31T05:05:31;19.83;;;5.80;;
9080;SDS011;13509;50.760;6.080;2023-01-31T05:08:01;21.20;;;6.10;;
9080;SDS011;13509;50.760;6.080;2023-01-31T05:10:29;24.53;;;7.07;;
9080;SDS011;13509;50.760;6.080;2023-01-31T05:12:58;21.67;;;5.63;;
9080;SDS011;13509;50.760;6.080;2023-01-31T05:15:27;17.27;;;6.00;;
9080;SDS011;13509;50.760;6.080;2023-01-31T05:17:55;26.93;;;6.33;;
9080;SDS011;13509;50.760;6.080;2023-01-31T05:20:28;22.87;;;5.97;;
9080;SDS011;13509;50.760;6.080;2023-01-31T05:22:57;13.67;;;5.40;;
9080;SDS011;13509;50.760;6.080;2023-01-31T05:25:25;22.10;;;5.80;;
9080;SDS011;13509;50.760;6.080;2023-01-31T05:27:53;19.27;;;5.77;;
9080;SDS011;13509;50.760;6.080;2023-01-31T05:30:22;18.87;;;6.33;;
9080;SDS011;13509;50.760;6.080;2023-01-31T05:32:51;18.50;;;5.90;;
9080;SDS011;13509;50.760;6.080;2023-01-31T05:35:19;18.73;;;5.60;;
9080;SDS011;13509;50.760;6.080;2023-01-31T05:37:48;21.50;;;5.67;;
9080;SDS011;13509;50.760;6.080;2023-01-31T05:40:16;18.93;;;5.83;;
9080;SDS011;13509;50.760;6.080;2023-01-31T05:42:45;18.77;;;5.47;;
9080;SDS011;13509;50.760;6.080;2023-01-31T05:45:16;16.27;;;5.20;;
9080;SDS011;13509;50.760;6.080;2023-01-31T05:47:45;19.13;;;5.33;;
9080;SDS011;13509;50.760;6.080;2023-01-31T05:50:15;22.33;;;5.70;;
9080;SDS011;13509;50.760;6.080;2023-01-31T05:52:48;20.03;;;5.47;;
9080;SDS011;13509;50.760;6.080;2023-01-31T05:55:16;17.33;;;5.07;;
9080;SDS011;13509;50.760;6.080;2023-01-31T05:57:45;18.60;;;4.87;;
9080;SDS011;13509;50.760;6.080;2023-01-31T06:00:13;16.30;;;4.97;;
9080;SDS011;13509;50.760;6.080;2023-01-31T06:02:42;29.27;;;5.97;;
9080;SDS011;13509;50.760;6.080;2023-01-31T06:05:10;12.80;;;5.20;;
9080;SDS011;13509;50.760;6.080;2023-01-31T06:07:40;21.70;;;5.83;;
9080;SDS011;13509;50.760;6.080;2023-01-31T06:10:09;19.30;;;5.30;;
9080;SDS011;13509;50.760;6.080;2023-01-31T06:12:37;14.20;;;4.73;;
9080;SDS011;13509;50.760;6.080;2023-01-31T06:15:06;15.63;;;4.87;;
9080;SDS011;13509;50.760;6.080;2023-01-31T06:17:35;14.73;;;4.80;;
9080;SDS011;13509;50.760;6.080;2023-01-31T06:20:04;11.57;;;4.27;;
9080;SDS011;13509;50.760;6.080;2023-01-31T06:22:32;24.50;;;4.93;;
9080;SDS011;13509;50.760;6.080;2023-01-31T06:25:02;11.13;;;4.40;;
9080;SDS011;13509;50.760;6.080;2023-01-31T06:27:31;15.50;;;5.30;;
9080;SDS011;13509;50.760;6.080;2023-01-31T06:29:59;19.43;;;4.40;;
9080;SDS011;13509;50.760;6.080;2023-01-31T06:32:27;17.03;;;4.03;;
9080;SDS011;13509;50.760;6.080;2023-01-31T06:34:55;18.50;;;5.00;;
9080;SDS011;13509;50.760;6.080;2023-01-31T06:37:24;13.77;;;3.60;;
9080;SDS011;13509;50.760;6.080;2023-01-31T06:39:52;9.43;;;3.87;;
9080;SDS011;13509;50.760;6.080;2023-01-31T06:42:22;19.60;;;4.00;;
9080;SDS011;13509;50.760;6.080;2023-01-31T06:44:50;18.17;;;4.93;;
9080;SDS011;13509;50.760;6.080;2023-01-31T06:47:18;18.00;;;3.73;;
9080;SDS011;13509;50.760;6.080;2023-01-31T06:49:46;18.10;;;4.20;;
9080;SDS011;13509;50.760;6.080;2023-01-31T06:52:14;17.40;;;3.93;;
9080;SDS011;13509;50.760;6.080;2023-01-31T06:54:42;15.10;;;4.70;;
9080;SDS011;13509;50.760;6.080;2023-01-31T06:57:11;18.93;;;5.30;;
9080;SDS011;13509;50.760;6.080;2023-01-31T06:59:40;15.00;;;3.77;;
9080;SDS011;13509;50.760;6.080;2023-01-31T07:02:08;14.97;;;4.73;;
9080;SDS011;13509;50.760;6.080;2023-01-31T07:04:37;13.97;;;4.20;;
9080;SDS011;13509;50.760;6.080;2023-01-31T07:07:05;11.57;;;3.80;;
9080;SDS011;13509;50.760;6.080;2023-01-31T07:09:33;17.00;;;4.23;;
9080;SDS011;13509;50.760;6.080;2023-01-31T07:12:01;12.43;;;3.40;;
9080;SDS011;13509;50.760;6.080;2023-01-31T07:14:30;16.30;;;3.60;;
9080;SDS011;13509;50.760;6.080;2023-01-31T07:16:59;25.50;;;4.43;;
9080;SDS011;13509;50.760;6.080;2023-01-31T07:19:27;14.70;;;4.47;;
9080;SDS011;13509;50.760;6.080;2023-01-31T07:21:56;16.87;;;3.43;;
9080;SDS011;13509;50.760;6.080;2023-01-31T07:24:24;17.83;;;4.03;;
9080;SDS011;13509;50.760;6.080;2023-01-31T07:26:52;15.50;;;3.90;;
9080;SDS011;13509;50.760;6.080;2023-01-31T07:29:21;14.93;;;5.43;;
9080;SDS011;13509;50.760;6.080;2023-01-31T07:31:50;14.63;;;4.50;;
9080;SDS011;13509;50.760;6.080;2023-01-31T07:34:19;14.53;;;3.60;;
9080;SDS011;13509;50.760;6.080;2023-01-31T07:36:48;11.40;;;3.80;;
9080;SDS011;13509;50.760;6.080;2023-01-31T07:39:16;12.63;;;4.07;;
9080;SDS011;13509;50.760;6.080;2023-01-31T07:41:44;12.50;;;3.63;;
9080;SDS011;13509;50.760;6.080;2023-01-31T07:44:13;18.33;;;3.60;;
9080;SDS011;13509;50.760;6.080;2023-01-31T07:46:41;17.63;;;3.83;;
9080;SDS011;13509;50.760;6.080;2023-01-31T07:49:09;17.93;;;3.70;;
9080;SDS011;13509;50.760;6.080;2023-01-31T07:51:39;16.67;;;3.67;;
9080;SDS011;13509;50.760;6.080;2023-01-31T07:54:08;14.47;;;3.53;;
9080;SDS011;13509;50.760;6.080;2023-01-31T07:56:36;16.23;;;3.87;;
9080;SDS011;13509;50.760;6.080;2023-01-31T07:59:04;15.00;;;4.17;;
9080;SDS011;13509;50.760;6.080;2023-01-31T08:01:32;12.57;;;3.50;;
9080;SDS011;13509;50.760;6.080;2023-01-31T08:04:19;13.27;;;3.40;;
9080;SDS011;13509;50.760;6.080;2023-01-31T08:06:49;13.43;;;3.27;;
9080;SDS011;13509;50.760;6.080;2023-01-31T08:09:20;17.73;;;4.03;;
9080;SDS011;13509;50.760;6.080;2023-01-31T08:11:48;11.73;;;4.63;;
9080;SDS011;13509;50.760;6.080;2023-01-31T08:14:17;17.27;;;4.53;;
9080;SDS011;13509;50.760;6.080;2023-01-31T08:16:48;12.23;;;3.07;;
9080;SDS011;13509;50.760;6.080;2023-01-31T08:19:17;16.90;;;3.90;;
9080;SDS011;13509;50.760;6.080;2023-01-31T08:21:45;17.37;;;3.47;;
9080;SDS011;13509;50.760;6.080;2023-01-31T08:24:14;12.33;;;3.57;;
9080;SDS011;13509;50.760;6.080;2023-01-31T08:26:43;14.33;;;3.97;;
9080;SDS011;13509;50.760;6.080;2023-01-31T08:29:11;19.10;;;3.53;;
9080;SDS011;13509;50.760;6.080;2023-01-31T08:31:40;18.77;;;3.80;;
9080;SDS011;13509;50.760;6.080;2023-01-31T08:34:09;20.17;;;3.93;;
9080;SDS011;13509;50.760;6.080;2023-01-31T08:36:37;24.30;;;4.47;;
9080;SDS011;13509;50.760;6.080;2023-01-31T08:39:05;12.77;;;3.60;;
9080;SDS011;13509;50.760;6.080;2023-01-31T08:41:35;21.20;;;4.17;;
9080;SDS011;13509;50.760;6.080;2023-01-31T08:44:04;16.13;;;4.27;;
9080;SDS011;13509;50.760;6.080;2023-01-31T08:46:33;18.53;;;4.47;;
9080;SDS011;13509;50.760;6.080;2023-01-31T08:49:02;13.47;;;3.53;;
9080;SDS011;13509;50.760;6.080;2023-01-31T08:51:31;18.93;;;3.80;;
9080;SDS011;13509;50.760;6.080;2023-01-31T08:53:59;14.27;;;4.00;;
9080;SDS011;13509;50.760;6.080;2023-01-31T08:56:27;20.93;;;3.70;;
9080;SDS011;13509;50.760;6.080;2023-01-31T08:58:57;13.37;;;3.83;;
9080;SDS011;13509;50.760;6.080;2023-01-31T09:01:25;13.53;;;4.20;;
9080;SDS011;13509;50.760;6.080;2023-01-31T09:03:54;15.30;;;3.77;;
9080;SDS011;13509;50.760;6.080;2023-01-31T09:06:24;17.20;;;4.03;;
9080;SDS011;13509;50.760;6.080;2023-01-31T09:08:53;14.67;;;4.67;;
9080;SDS011;13509;50.760;6.080;2023-01-31T09:11:22;12.30;;;3.60;;
9080;SDS011;13509;50.760;6.080;2023-01-31T09:13:50;18.60;;;4.90;;
9080;SDS011;13509;50.760;6.080;2023-01-31T09:16:20;17.50;;;4.90;;
9080;SDS011;13509;50.760;6.080;2023-01-31T09:18:48;13.23;;;4.17;;
9080;SDS011;13509;50.760;6.080;2023-01-31T09:21:17;10.67;;;4.37;;
9080;SDS011;13509;50.760;6.080;2023-01-31T09:23:46;18.93;;;4.83;;
9080;SDS011;13509;50.760;6.080;2023-01-31T09:26:15;15.10;;;4.57;;
9080;SDS011;13509;50.760;6.080;2023-01-31T09:28:43;11.17;;;4.67;;
9080;SDS011;13509;50.760;6.080;2023-01-31T09:31:12;13.77;;;4.13;;
9080;SDS011;13509;50.760;6.080;2023-01-31T09:33:42;14.97;;;4.47;;
9080;SDS011;13509;50.760;6.080;2023-01-31T09:36:11;14.13;;;4.57;;
9080;SDS011;13509;50.760;6.080;2023-01-31T09:38:40;18.07;;;4.53;;
9080;SDS011;13509;50.760;6.080;2023-01-31T09:41:13;16.13;;;4.43;;
9080;SDS011;13509;50.760;6.080;2023-01-31T09:43:43;15.33;;;4.30;;
9080;SDS011;13509;50.760;6.080;2023-01-31T09:46:16;15.93;;;4.60;;
9080;SDS011;13509;50.760;6.080;2023-01-31T09:48:48;13.37;;;4.13;;
9080;SDS011;13509;50.760;6.080;2023-01-31T09:51:17;11.17;;;5.00;;
9080;SDS011;13509;50.760;6.080;2023-01-31T09:53:45;12.03;;;4.67;;
9080;SDS011;13509;50.760;6.080;2023-01-31T09:56:25;13.73;;;4.80;;
9080;SDS011;13509;50.760;6.080;2023-01-31T09:58:58;13.17;;;5.00;;
9080;SDS011;13509;50.760;6.080;2023-01-31T10:01:31;12.67;;;4.37;;
9080;SDS011;13509;50.760;6.080;2023-01-31T10:04:11;18.07;;;5.10;;
9080;SDS011;13509;50.760;6.080;2023-01-31T10:06:44;15.03;;;4.70;;
9080;SDS011;13509;50.760;6.080;2023-01-31T10:09:18;16.63;;;5.53;;
9080;SDS011;13509;50.760;6.080;2023-01-31T10:11:48;13.47;;;4.33;;
9080;SDS011;13509;50.760;6.080;2023-01-31T10:14:19;16.20;;;5.10;;
9080;SDS011;13509;50.760;6.080;2023-01-31T10:16:52;10.83;;;4.37;;
9080;SDS011;13509;50.760;6.080;2023-01-31T10:19:25;14.13;;;4.30;;
9080;SDS011;13509;50.760;6.080;2023-01-31T10:21:56;12.37;;;4.90;;
9080;SDS011;13509;50.760;6.080;2023-01-31T10:24:27;10.97;;;4.23;;
9080;SDS011;13509;50.760;6.080;2023-01-31T10:26:59;21.13;;;5.20;;
9080;SDS011;13509;50.760;6.080;2023-01-31T10:29:30;15.27;;;5.10;;
9080;SDS011;13509;50.760;6.080;2023-01-31T10:32:00;13.10;;;5.10;;
9080;SDS011;13509;50.760;6.080;2023-01-31T10:34:32;14.60;;;5.00;;
9080;SDS011;13509;50.760;6.080;2023-01-31T10:37:05;11.57;;;5.17;;
9080;SDS011;13509;50.760;6.080;2023-01-31T10:39:35;16.43;;;5.43;;
9080;SDS011;13509;50.760;6.080;2023-01-31T10:42:08;11.10;;;4.60;;
9080;SDS011;13509;50.760;6.080;2023-01-31T10:44:46;21.47;;;5.13;;
9080;SDS011;13509;50.760;6.080;2023-01-31T10:47:17;15.93;;;5.63;;
9080;SDS011;13509;50.760;6.080;2023-01-31T10:49:47;9.53;;;4.90;;
9080;SDS011;13509;50.760;6.080;2023-01-31T10:52:18;10.30;;;4.70;;
9080;SDS011;13509;50.760;6.080;2023-01-31T10:54:57;11.97;;;4.87;;
9080;SDS011;13509;50.760;6.080;2023-01-31T10:57:26;16.83;;;5.70;;
9080;SDS011;13509;50.760;6.080;2023-01-31T10:59:55;14.67;;;5.63;;
9080;SDS011;13509;50.760;6.080;2023-01-31T11:02:24;13.93;;;5.37;;
9080;SDS011;13509;50.760;6.080;2023-01-31T11:04:55;15.27;;;5.60;;
9080;SDS011;13509;50.760;6.080;2023-01-31T11:07:26;15.73;;;6.30;;
9080;SDS011;13509;50.760;6.080;2023-01-31T11:09:55;12.80;;;5.57;;
9080;SDS011;13509;50.760;6.080;2023-01-31T11:12:37;12.60;;;5.67;;
9080;SDS011;13509;50.760;6.080;2023-01-31T11:15:07;17.07;;;5.63;;
9080;SDS011;13509;50.760;6.080;2023-01-31T11:17:41;12.87;;;5.77;;
9080;SDS011;13509;50.760;6.080;2023-01-31T11:20:20;11.03;;;5.63;;
9080;SDS011;13509;50.760;6.080;2023-01-31T11:22:49;12.63;;;5.37;;
9080;SDS011;13509;50.760;6.080;2023-01-31T11:25:19;14.93;;;5.60;;
9080;SDS011;13509;50.760;6.080;2023-01-31T11:27:48;13.17;;;5.00;;
9080;SDS011;13509;50.760;6.080;2023-01-31T11:30:20;12.63;;;5.10;;
9080;SDS011;13509;50.760;6.080;2023-01-31T11:32:49;8.57;;;4.83;;
9080;SDS011;13509;50.760;6.080;2023-01-31T11:35:23;10.50;;;4.77;;
9080;SDS011;13509;50.760;6.080;2023-01-31T11:37:52;8.87;;;4.17;;
9080;SDS011;13509;50.760;6.080;2023-01-31T11:40:23;9.93;;;4.60;;
9080;SDS011;13509;50.760;6.080;2023-01-31T11:42:53;10.30;;;4.87;;
9080;SDS011;13509;50.760;6.080;2023-01-31T11:45:22;8.27;;;4.67;;
9080;SDS011;13509;50.760;6.080;2023-01-31T11:47:53;10.30;;;4.83;;
9080;SDS011;13509;50.760;6.080;2023-01-31T11:50:24;8.63;;;4.47;;
9080;SDS011;13509;50.760;6.080;2023-01-31T11:52:54;12.37;;;5.20;;
9080;SDS011;13509;50.760;6.080;2023-01-31T11:55:23;11.23;;;4.97;;
9080;SDS011;13509;50.760;6.080;2023-01-31T11:57:55;6.90;;;4.60;;
9080;SDS011;13509;50.760;6.080;2023-01-31T12:00:25;8.80;;;5.30;;
9080;SDS011;13509;50.760;6.080;2023-01-31T12:02:58;9.50;;;4.90;;
9080;SDS011;13509;50.760;6.080;2023-01-31T12:05:35;11.50;;;4.40;;
9080;SDS011;13509;50.760;6.080;2023-01-31T12:08:04;7.87;;;4.53;;
9080;SDS011;13509;50.760;6.080;2023-01-31T12:10:34;12.70;;;4.90;;
9080;SDS011;13509;50.760;6.080;2023-01-31T12:13:09;8.07;;;4.37;;
9080;SDS011;13509;50.760;6.080;2023-01-31T12:15:45;8.10;;;4.50;;
9080;SDS011;13509;50.760;6.080;2023-01-31T12:18:16;15.83;;;5.07;;
9080;SDS011;13509;50.760;6.080;2023-01-31T12:20:50;10.20;;;4.40;;
9080;SDS011;13509;50.760;6.080;2023-01-31T12:23:23;12.63;;;4.60;;
9080;SDS011;13509;50.760;6.080;2023-01-31T12:26:00;7.73;;;4.13;;
9080;SDS011;13509;50.760;6.080;2023-01-31T12:28:33;9.50;;;5.10;;
9080;SDS011;13509;50.760;6.080;2023-01-31T12:31:05;8.57;;;4.40;;
9080;SDS011;13509;50.760;6.080;2023-01-31T12:33:40;10.27;;;4.47;;
9080;SDS011;13509;50.760;6.080;2023-01-31T12:36:18;9.07;;;4.70;;
9080;SDS011;13509;50.760;6.080;2023-01-31T12:38:55;9.80;;;4.47;;
9080;SDS011;13509;50.760;6.080;2023-01-31T12:41:28;9.67;;;4.47;;
9080;SDS011;13509;50.760;6.080;2023-01-31T12:44:12;10.30;;;4.87;;
9080;SDS011;13509;50.760;6.080;2023-01-31T12:46:45;10.13;;;4.63;;
9080;SDS011;13509;50.760;6.080;2023-01-31T12:49:44;9.57;;;4.70;;
9080;SDS011;13509;50.760;6.080;2023-01-31T12:52:19;9.90;;;4.83;;
9080;SDS011;13509;50.760;6.080;2023-01-31T12:54:54;9.93;;;4.83;;
9080;SDS011;13509;50.760;6.080;2023-01-31T12:57:32;10.00;;;4.87;;
9080;SDS011;13509;50.760;6.080;2023-01-31T13:00:05;9.83;;;5.07;;
9080;SDS011;13509;50.760;6.080;2023-01-31T13:02:38;11.00;;;4.83;;
9080;SDS011;13509;50.760;6.080;2023-01-31T13:05:09;9.63;;;4.77;;
9080;SDS011;13509;50.760;6.080;2023-01-31T13:07:41;10.87;;;5.10;;
9080;SDS011;13509;50.760;6.080;2023-01-31T13:10:16;10.33;;;4.80;;
9080;SDS011;13509;50.760;6.080;2023-01-31T13:12:47;12.37;;;4.73;;
9080;SDS011;13509;50.760;6.080;2023-01-31T13:15:18;11.13;;;5.13;;
9080;SDS011;13509;50.760;6.080;2023-01-31T13:17:48;11.60;;;5.27;;
9080;SDS011;13509;50.760;6.080;2023-01-31T13:20:21;9.13;;;5.67;;
9080;SDS011;13509;50.760;6.080;2023-01-31T13:22:54;9.83;;;5.63;;
9080;SDS011;13509;50.760;6.080;2023-01-31T13:25:28;9.80;;;4.60;;
9080;SDS011;13509;50.760;6.080;2023-01-31T13:28:02;7.00;;;4.97;;
9080;SDS011;13509;50.760;6.080;2023-01-31T13:30:33;12.97;;;5.00;;
9080;SDS011;13509;50.760;6.080;2023-01-31T13:33:06;8.67;;;5.20;;
9080;SDS011;13509;50.760;6.080;2023-01-31T13:35:36;11.23;;;5.43;;
9080;SDS011;13509;50.760;6.080;2023-01-31T13:38:10;14.90;;;6.20;;
9080;SDS011;13509;50.760;6.080;2023-01-31T13:40:41;9.10;;;5.40;;
9080;SDS011;13509;50.760;6.080;2023-01-31T13:43:12;12.77;;;5.43;;
9080;SDS011;13509;50.760;6.080;2023-01-31T13:45:41;11.70;;;5.33;;
9080;SDS011;13509;50.760;6.080;2023-01-31T13:48:16;11.70;;;5.67;;
9080;SDS011;13509;50.760;6.080;2023-01-31T13:50:46;11.77;;;5.63;;
9080;SDS011;13509;50.760;6.080;2023-01-31T13:53:18;13.07;;;6.37;;
9080;SDS011;13509;50.760;6.080;2023-01-31T13:55:48;14.60;;;6.73;;
9080;SDS011;13509;50.760;6.080;2023-01-31T13:58:18;13.07;;;6.10;;
9080;SDS011;13509;50.760;6.080;2023-01-31T14:00:47;13.67;;;6.47;;
9080;SDS011;13509;50.760;6.080;2023-01-31T14:03:17;11.13;;;6.37;;
9080;SDS011;13509;50.760;6.080;2023-01-31T14:05:50;14.50;;;6.80;;
9080;SDS011;13509;50.760;6.080;2023-01-31T14:11:33;13.87;;;7.40;;
9080;SDS011;13509;50.760;6.080;2023-01-31T14:14:15;10.93;;;6.80;;
9080;SDS011;13509;50.760;6.080;2023-01-31T14:16:45;13.43;;;7.37;;
9080;SDS011;13509;50.760;6.080;2023-01-31T14:19:29;10.37;;;6.97;;
9080;SDS011;13509;50.760;6.080;2023-01-31T14:22:02;13.07;;;7.47;;
9080;SDS011;13509;50.760;6.080;2023-01-31T14:27:35;9.70;;;6.50;;
9080;SDS011;13509;50.760;6.080;2023-01-31T14:30:08;9.00;;;6.50;;
9080;SDS011;13509;50.760;6.080;2023-01-31T14:32:37;11.70;;;6.60;;
9080;SDS011;13509;50.760;6.080;2023-01-31T14:37:47;12.47;;;6.70;;
9080;SDS011;13509;50.760;6.080;2023-01-31T14:40:21;9.30;;;6.13;;
9080;SDS011;13509;50.760;6.080;2023-01-31T14:45:40;8.57;;;6.23;;
9080;SDS011;13509;50.760;6.080;2023-01-31T14:48:12;7.47;;;6.23;;
9080;SDS011;13509;50.760;6.080;2023-01-31T14:50:51;10.73;;;6.60;;
9080;SDS011;13509;50.760;6.080;2023-01-31T14:53:26;11.70;;;6.53;;
9080;SDS011;13509;50.760;6.080;2023-01-31T14:56:04;8.70;;;6.53;;
9080;SDS011;13509;50.760;6.080;2023-01-31T14:58:41;8.10;;;5.67;;
9080;SDS011;13509;50.760;6.080;2023-01-31T15:01:11;11.10;;;6.53;;
9080;SDS011;13509;50.760;6.080;2023-01-31T15:03:47;10.77;;;7.00;;
9080;SDS011;13509;50.760;6.080;2023-01-31T15:06:16;11.30;;;6.63;;
9080;SDS011;13509;50.760;6.080;2023-01-31T15:08:49;10.83;;;6.47;;
9080;SDS011;13509;50.760;6.080;2023-01-31T15:11:36;8.93;;;6.87;;
9080;SDS011;13509;50.760;6.080;2023-01-31T15:14:18;9.33;;;6.70;;
9080;SDS011;13509;50.760;6.080;2023-01-31T15:17:02;12.80;;;6.80;;
9080;SDS011;13509;50.760;6.080;2023-01-31T15:19:32;9.70;;;6.80;;
9080;SDS011;13509;50.760;6.080;2023-01-31T15:22:03;9.13;;;6.60;;
9080;SDS011;13509;50.760;6.080;2023-01-31T15:24:32;9.30;;;6.23;;
9080;SDS011;13509;50.760;6.080;2023-01-31T15:27:01;8.87;;;6.63;;
9080;SDS011;13509;50.760;6.080;2023-01-31T15:29:32;13.10;;;6.20;;